createdAt,value
2023-03-11T00:01:58.607Z,0.90
2023-03-11T00:03:58.562Z,0.90
2023-03-11T00:05:58.580Z,0.90
2023-03-11T00:07:58.490Z,0.90
2023-03-11T00:09:58.505Z,0.90
2023-03-11T00:11:58.524Z,0.90
2023-03-11T00:13:58.553Z,0.90
2023-03-11T00:15:58.492Z,0.90
2023-03-11T00:17:58.503Z,0.90
2023-03-11T00:20:28.525Z,0.90
2023-03-11T00:22:28.492Z,0.90
2023-03-11T00:24:28.508Z,0.90
2023-03-11T00:26:28.527Z,0.90
2023-03-11T00:28:28.683Z,0.90
2023-03-11T00:30:28.665Z,0.80
2023-03-11T00:32:28.617Z,0.80
2023-03-11T00:34:28.480Z,0.80
2023-03-11T00:36:28.507Z,0.80
2023-03-11T00:38:28.541Z,0.80
2023-03-11T00:40:28.513Z,0.80
2023-03-11T00:42:28.553Z,0.70
2023-03-11T00:44:28.517Z,0.70
2023-03-11T00:46:28.712Z,0.70
2023-03-11T00:48:28.512Z,0.70
2023-03-11T00:50:28.494Z,0.70
2023-03-11T00:52:28.505Z,0.70
2023-03-11T00:54:28.520Z,0.70
2023-03-11T00:56:28.571Z,0.70
2023-03-11T00:58:28.520Z,0.70
2023-03-11T01:00:28.561Z,0.70
2023-03-11T01:02:28.496Z,0.70
2023-03-11T01:04:28.644Z,0.70
2023-03-11T01:06:39.217Z,0.70
2023-03-11T01:08:28.613Z,0.70
2023-03-11T01:10:28.580Z,0.70
2023-03-11T01:12:28.589Z,0.70
2023-03-11T01:16:28.504Z,0.70
2023-03-11T01:18:28.581Z,0.70
2023-03-11T01:22:40.299Z,0.60
2023-03-11T01:24:40.248Z,0.60
2023-03-11T01:26:40.262Z,0.50
2023-03-11T01:28:40.343Z,0.50
2023-03-11T01:30:40.236Z,0.50
2023-03-11T01:32:40.300Z,0.50
2023-03-11T01:34:40.263Z,0.50
2023-03-11T01:36:40.249Z,0.50
2023-03-11T01:38:40.240Z,0.50
2023-03-11T01:40:40.252Z,0.50
2023-03-11T01:42:40.237Z,0.50
2023-03-11T01:44:40.237Z,0.40
2023-03-11T01:46:40.261Z,0.40
2023-03-11T01:48:40.268Z,0.40
2023-03-11T01:50:40.298Z,0.40
2023-03-11T01:52:40.240Z,0.40
2023-03-11T01:54:40.247Z,0.30
2023-03-11T01:56:40.285Z,0.30
2023-03-11T01:58:40.377Z,0.30
2023-03-11T02:00:40.257Z,0.30
2023-03-11T02:02:40.307Z,0.30
2023-03-11T02:04:40.240Z,-0.20
2023-03-11T02:06:40.231Z,-0.20
2023-03-11T02:08:40.267Z,-0.20
2023-03-11T02:10:40.241Z,-0.20
2023-03-11T02:12:40.257Z,-0.30
2023-03-11T02:14:40.266Z,-0.30
2023-03-11T02:16:40.261Z,-0.30
2023-03-11T02:18:40.275Z,-0.40
2023-03-11T02:20:40.268Z,-0.40
2023-03-11T02:22:40.254Z,-0.40
2023-03-11T02:24:40.241Z,-0.50
2023-03-11T02:26:40.275Z,-0.50
2023-03-11T02:28:40.311Z,-0.50
2023-03-11T02:30:40.274Z,-0.60
2023-03-11T02:32:40.399Z,-0.60
2023-03-11T02:34:40.286Z,-0.60
2023-03-11T02:36:40.281Z,-0.60
2023-03-11T02:38:40.266Z,-0.60
2023-03-11T02:40:40.251Z,-0.60
2023-03-11T02:42:40.266Z,-0.60
2023-03-11T02:44:40.286Z,-0.60
2023-03-11T02:46:40.409Z,-0.60
2023-03-11T02:49:10.283Z,-0.60
2023-03-11T02:51:10.335Z,-0.70
2023-03-11T02:53:10.315Z,-0.70
2023-03-11T02:55:12.586Z,-0.70
2023-03-11T02:57:10.297Z,-0.70
2023-03-11T02:59:10.263Z,-0.70
2023-03-11T03:01:10.381Z,-0.70
2023-03-11T03:03:10.345Z,-0.70
2023-03-11T03:05:10.267Z,-0.90
2023-03-11T03:07:10.262Z,-0.90
2023-03-11T03:09:10.305Z,-1.00
2023-03-11T03:11:10.303Z,-1.00
2023-03-11T03:13:10.277Z,-1.00
2023-03-11T03:15:10.295Z,-1.00
2023-03-11T03:17:10.481Z,-1.10
2023-03-11T03:19:10.296Z,-1.20
2023-03-11T03:21:10.315Z,-1.30
2023-03-11T03:23:10.321Z,-1.30
2023-03-11T03:25:10.267Z,-1.30
2023-03-11T03:27:10.281Z,-1.40
2023-03-11T03:29:10.332Z,-1.40
2023-03-11T03:31:10.315Z,-1.40
2023-03-11T03:33:10.354Z,-1.40
2023-03-11T03:35:10.301Z,-1.50
2023-03-11T03:37:10.310Z,-1.50
2023-03-11T03:39:10.288Z,-1.50
2023-03-11T03:41:10.274Z,-1.50
2023-03-11T03:43:10.284Z,-1.50
2023-03-11T03:45:10.303Z,-1.50
2023-03-11T03:47:10.354Z,-1.50
2023-03-11T03:49:10.312Z,-1.50
2023-03-11T03:51:10.298Z,-1.50
2023-03-11T03:53:10.383Z,-1.60
2023-03-11T03:55:10.283Z,-1.60
2023-03-11T03:57:10.421Z,-1.60
2023-03-11T03:59:10.311Z,-1.60
2023-03-11T04:01:10.361Z,-1.60
2023-03-11T04:03:10.488Z,-1.70
2023-03-11T04:05:10.343Z,-1.70
2023-03-11T04:07:10.340Z,-1.70
2023-03-11T04:09:10.286Z,-1.70
2023-03-11T04:11:10.320Z,-1.70
2023-03-11T04:13:10.419Z,-1.70
2023-03-11T04:15:10.346Z,-1.70
2023-03-11T04:17:10.316Z,-1.80
2023-03-11T04:19:10.332Z,-1.80
2023-03-11T04:21:10.328Z,-1.90
2023-03-11T04:23:10.420Z,-1.90
2023-03-11T04:25:10.408Z,-1.90
2023-03-11T04:27:10.474Z,-1.90
2023-03-11T04:29:10.333Z,-1.90
2023-03-11T04:31:10.378Z,-2.10
2023-03-11T04:33:10.326Z,-2.00
2023-03-11T04:35:40.466Z,-2.00
2023-03-11T04:37:40.334Z,-2.00
2023-03-11T04:39:40.329Z,-2.00
2023-03-11T04:41:40.362Z,-2.00
2023-03-11T04:43:40.336Z,-2.00
2023-03-11T04:45:40.346Z,-2.00
2023-03-11T04:47:40.314Z,-2.00
2023-03-11T04:49:40.327Z,-2.00
2023-03-11T04:51:40.339Z,-2.00
2023-03-11T04:53:40.335Z,-2.00
2023-03-11T04:55:40.317Z,-2.00
2023-03-11T04:57:40.370Z,-2.00
2023-03-11T04:59:40.316Z,-2.10
2023-03-11T05:01:40.417Z,-2.10
2023-03-11T05:03:40.321Z,-2.10
2023-03-11T05:05:40.417Z,-2.10
2023-03-11T05:07:40.352Z,-2.10
2023-03-11T05:09:40.333Z,-2.10
2023-03-11T05:11:40.342Z,-2.10
2023-03-11T05:13:40.319Z,-2.10
2023-03-11T05:15:40.365Z,-2.10
2023-03-11T05:17:40.339Z,-2.10
2023-03-11T05:19:40.339Z,-2.10
2023-03-11T05:21:40.338Z,-2.10
2023-03-11T05:23:40.462Z,-2.10
2023-03-11T05:25:40.446Z,-2.10
2023-03-11T05:27:40.345Z,-2.10
2023-03-11T05:29:40.354Z,-2.10
2023-03-11T05:31:40.342Z,-2.10
2023-03-11T05:33:40.537Z,-2.10
2023-03-11T05:35:40.371Z,-2.10
2023-03-11T05:37:40.381Z,-2.10
2023-03-11T05:39:40.450Z,-2.10
2023-03-11T05:41:40.479Z,-2.10
2023-03-11T05:43:40.363Z,-2.10
2023-03-11T05:45:40.404Z,-2.10
2023-03-11T05:47:40.369Z,-2.10
2023-03-11T05:49:40.357Z,-2.10
2023-03-11T05:51:40.354Z,-2.10
2023-03-11T05:53:40.380Z,-2.10
2023-03-11T05:55:40.481Z,-2.10
2023-03-11T05:57:40.354Z,-2.10
2023-03-11T05:59:40.371Z,-2.10
2023-03-11T06:01:40.356Z,-2.10
2023-03-11T06:03:40.439Z,-2.10
2023-03-11T06:05:40.370Z,-2.10
2023-03-11T06:07:40.434Z,-2.10
2023-03-11T06:09:40.499Z,-2.10
2023-03-11T06:11:40.514Z,-2.10
2023-03-11T06:13:40.424Z,-2.10
2023-03-11T06:15:40.388Z,-2.10
2023-03-11T06:17:40.500Z,-2.10
2023-03-11T06:19:40.382Z,-2.10
2023-03-11T06:21:40.364Z,-2.10
2023-03-11T06:24:10.502Z,-2.10
2023-03-11T06:26:10.469Z,-2.10
2023-03-11T06:28:10.369Z,-2.10
2023-03-11T06:30:10.433Z,-2.10
2023-03-11T06:32:10.419Z,-2.10
2023-03-11T06:34:10.769Z,-2.10
2023-03-11T06:36:10.485Z,-2.10
2023-03-11T06:38:10.463Z,-2.10
2023-03-11T06:40:10.407Z,-2.10
2023-03-11T06:42:10.391Z,-2.10
2023-03-11T06:44:10.405Z,-2.10
2023-03-11T06:46:10.460Z,-2.10
2023-03-11T06:48:10.380Z,-2.10
2023-03-11T06:50:10.467Z,-2.10
2023-03-11T06:52:10.466Z,-2.10
2023-03-11T06:54:10.469Z,-2.10
2023-03-11T06:56:10.410Z,-2.10
2023-03-11T06:58:10.383Z,-2.10
2023-03-11T07:00:10.522Z,-2.10
2023-03-11T07:02:10.434Z,-2.10
2023-03-11T07:04:10.531Z,-2.10
2023-03-11T07:06:10.373Z,-2.10
2023-03-11T07:08:10.481Z,-2.10
2023-03-11T07:10:10.605Z,-2.10
2023-03-11T07:12:10.493Z,-2.10
2023-03-11T07:14:10.545Z,-2.10
2023-03-11T07:16:10.600Z,-2.10
2023-03-11T07:18:10.476Z,-2.10
2023-03-11T07:20:10.475Z,-2.10
2023-03-11T07:22:10.491Z,-2.10
2023-03-11T07:24:10.500Z,-2.10
2023-03-11T07:26:10.446Z,-2.10
2023-03-11T07:28:10.403Z,-2.10
2023-03-11T07:30:10.445Z,-2.10
2023-03-11T07:32:10.386Z,-2.10
2023-03-11T07:34:10.413Z,-2.10
2023-03-11T07:36:10.439Z,-1.70
2023-03-11T07:38:10.559Z,-1.70
2023-03-11T07:40:10.525Z,-1.70
2023-03-11T07:42:10.456Z,-1.70
2023-03-11T07:44:10.420Z,-1.50
2023-03-11T07:46:10.507Z,-1.50
2023-03-11T07:48:10.456Z,-1.40
2023-03-11T07:50:10.408Z,-1.40
2023-03-11T07:52:10.602Z,-1.40
2023-03-11T07:54:10.400Z,-1.40
2023-03-11T07:56:10.436Z,-1.10
2023-03-11T07:58:10.396Z,-1.10
2023-03-11T08:00:10.444Z,-1.10
2023-03-11T08:02:10.522Z,-1.10
2023-03-11T08:04:12.918Z,-1.10
2023-03-11T08:06:10.421Z,-1.10
2023-03-11T08:08:10.476Z,-1.10
2023-03-11T08:10:40.505Z,-0.90
2023-03-11T08:12:42.844Z,-0.90
2023-03-11T08:14:40.421Z,-0.90
2023-03-11T08:16:40.419Z,-0.60
2023-03-11T08:20:40.738Z,-0.60
2023-03-11T08:22:55.715Z,-0.60
2023-03-11T08:24:40.525Z,-0.60
2023-03-11T08:26:40.498Z,-0.60
2023-03-11T08:30:41.988Z,-0.30
2023-03-11T08:32:40.545Z,-0.30
2023-03-11T08:34:31.212Z,-0.30
2023-03-11T08:36:31.113Z,-0.30
2023-03-11T08:38:31.078Z,-0.30
2023-03-11T08:40:31.133Z,-0.30
2023-03-11T08:42:31.080Z,-0.30
2023-03-11T08:44:31.051Z,-0.20
2023-03-11T08:46:31.236Z,-0.20
2023-03-11T08:48:31.089Z,-0.20
2023-03-11T08:50:32.372Z,-0.20
2023-03-11T08:52:31.124Z,-0.20
2023-03-11T08:54:31.174Z,0.20
2023-03-11T08:56:31.159Z,0.20
2023-03-11T08:58:31.043Z,0.10
2023-03-11T09:00:31.037Z,0.10
2023-03-11T09:02:31.139Z,0.10
2023-03-11T09:04:31.251Z,0.10
2023-03-11T09:06:31.124Z,0.10
2023-03-11T09:08:31.057Z,0.10
2023-03-11T09:10:31.194Z,0.30
2023-03-11T09:12:31.147Z,0.40
2023-03-11T09:14:31.098Z,0.40
2023-03-11T09:16:31.150Z,0.40
2023-03-11T09:18:31.088Z,0.40
2023-03-11T09:20:31.125Z,0.40
2023-03-11T09:22:31.122Z,0.40
2023-03-11T09:24:31.160Z,0.40
2023-03-11T09:27:01.135Z,0.70
2023-03-11T09:29:01.076Z,0.70
2023-03-11T09:31:01.170Z,0.70
2023-03-11T09:33:01.100Z,0.70
2023-03-11T09:35:01.129Z,0.70
2023-03-11T09:37:01.398Z,0.70
2023-03-11T09:39:01.188Z,0.80
2023-03-11T09:41:01.164Z,0.80
2023-03-11T09:43:01.179Z,0.80
2023-03-11T09:45:01.202Z,0.80
2023-03-11T09:47:01.183Z,0.80
2023-03-11T09:49:01.136Z,0.80
2023-03-11T09:51:01.172Z,0.80
2023-03-11T09:53:01.140Z,0.80
2023-03-11T09:55:01.154Z,1.00
2023-03-11T09:57:01.170Z,1.00
2023-03-11T09:59:01.165Z,1.00
2023-03-11T10:01:01.146Z,1.30
2023-03-11T10:03:01.198Z,1.20
2023-03-11T10:05:01.161Z,1.20
2023-03-11T10:07:01.175Z,1.20
2023-03-11T10:09:01.172Z,0.80
2023-03-11T10:11:01.175Z,0.70
2023-03-11T10:13:01.220Z,0.60
2023-03-11T10:15:01.261Z,0.60
2023-03-11T10:17:01.165Z,0.70
2023-03-11T10:19:01.115Z,0.70
2023-03-11T10:21:01.151Z,0.90
2023-03-11T10:23:01.219Z,1.00
2023-03-11T10:25:01.203Z,1.00
2023-03-11T10:27:01.247Z,1.20
2023-03-11T10:29:01.221Z,1.20
2023-03-11T10:31:01.248Z,1.90
2023-03-11T10:33:01.117Z,2.10
2023-03-11T10:35:01.153Z,2.10
2023-03-11T10:37:01.171Z,2.00
2023-03-11T10:39:01.182Z,2.10
2023-03-11T10:41:01.210Z,2.20
2023-03-11T10:43:01.110Z,2.20
2023-03-11T10:45:01.233Z,1.90
2023-03-11T10:47:01.149Z,1.90
2023-03-11T10:49:01.163Z,1.80
2023-03-11T10:51:01.213Z,1.80
2023-03-11T10:53:01.183Z,1.80
2023-03-11T10:55:01.200Z,1.70
2023-03-11T10:57:01.221Z,1.70
2023-03-11T10:59:01.122Z,1.70
2023-03-11T11:01:01.234Z,1.70
2023-03-11T11:03:01.182Z,1.70
2023-03-11T11:05:01.185Z,1.70
2023-03-11T11:07:01.569Z,1.90
2023-03-11T11:09:01.200Z,1.90
2023-03-11T11:11:01.227Z,1.90
2023-03-11T11:13:01.145Z,2.40
2023-03-11T11:15:01.266Z,2.50
2023-03-11T11:17:01.244Z,2.50
2023-03-11T11:19:31.225Z,2.50
2023-03-11T11:21:31.204Z,2.50
2023-03-11T11:23:31.209Z,2.50
2023-03-11T11:25:31.289Z,2.50
2023-03-11T11:27:31.253Z,2.70
2023-03-11T11:29:31.166Z,3.20
2023-03-11T11:31:31.139Z,3.20
2023-03-11T11:33:31.343Z,3.50
2023-03-11T11:35:31.189Z,3.80
2023-03-11T11:37:31.200Z,4.40
2023-03-11T11:39:31.303Z,4.40
2023-03-11T11:41:31.227Z,4.40
2023-03-11T11:43:31.246Z,4.40
2023-03-11T11:45:31.216Z,6.30
2023-03-11T11:47:31.164Z,5.70
2023-03-11T11:49:31.202Z,5.70
2023-03-11T11:51:31.148Z,5.70
2023-03-11T11:53:31.135Z,7.00
2023-03-11T11:55:31.158Z,7.20
2023-03-11T11:57:31.177Z,7.60
2023-03-11T11:59:31.277Z,7.60
2023-03-11T12:01:31.180Z,7.60
2023-03-11T12:03:31.221Z,7.60
2023-03-11T12:05:31.194Z,7.60
2023-03-11T12:07:31.189Z,7.00
2023-03-11T12:09:31.160Z,7.00
2023-03-11T12:11:31.267Z,6.10
2023-03-11T12:13:31.205Z,5.20
2023-03-11T12:15:31.183Z,4.40
2023-03-11T12:17:31.303Z,4.40
2023-03-11T12:19:31.217Z,4.20
2023-03-11T12:21:31.205Z,3.80
2023-03-11T12:23:31.231Z,3.80
2023-03-11T12:25:31.290Z,3.70
2023-03-11T12:27:31.269Z,3.70
2023-03-11T12:29:31.279Z,3.60
2023-03-11T12:31:31.275Z,3.60
2023-03-11T12:33:31.173Z,3.60
2023-03-11T12:35:31.250Z,3.60
2023-03-11T12:37:31.258Z,3.60
2023-03-11T12:39:31.240Z,3.60
2023-03-11T12:41:31.285Z,3.60
2023-03-11T12:43:31.293Z,3.60
2023-03-11T12:45:31.302Z,3.60
2023-03-11T12:47:32.019Z,4.70
2023-03-11T12:49:31.209Z,4.70
2023-03-11T12:51:31.229Z,4.70
2023-03-11T12:53:31.246Z,4.70
2023-03-11T12:55:31.278Z,4.70
2023-03-11T12:57:31.299Z,4.70
2023-03-11T12:59:31.301Z,4.70
2023-03-11T13:01:31.322Z,4.70
2023-03-11T13:03:31.240Z,4.70
2023-03-11T13:05:31.248Z,4.70
2023-03-11T13:07:31.279Z,4.70
2023-03-11T13:09:31.617Z,4.70
2023-03-11T13:11:31.294Z,4.70
2023-03-11T13:13:31.309Z,4.70
2023-03-11T13:16:01.348Z,4.70
2023-03-11T13:18:01.292Z,4.70
2023-03-11T13:20:01.234Z,4.70
2023-03-11T13:22:01.234Z,4.70
2023-03-11T13:24:01.313Z,4.70
2023-03-11T13:26:01.242Z,4.70
2023-03-11T13:28:01.375Z,4.70
2023-03-11T13:30:01.317Z,4.70
2023-03-11T13:32:01.319Z,4.70
2023-03-11T13:34:01.227Z,4.70
2023-03-11T13:36:01.317Z,4.70
2023-03-11T13:38:01.305Z,4.70
2023-03-11T13:40:01.330Z,4.70
2023-03-11T13:42:01.318Z,4.70
2023-03-11T13:44:01.346Z,4.70
2023-03-11T13:46:01.366Z,4.70
2023-03-11T13:48:01.351Z,4.70
2023-03-11T13:50:02.421Z,4.70
2023-03-11T13:52:01.280Z,4.70
2023-03-11T13:54:01.315Z,4.70
2023-03-11T13:56:01.306Z,4.70
2023-03-11T13:58:01.302Z,5.20
2023-03-11T14:00:01.333Z,5.20
2023-03-11T14:02:01.371Z,5.20
2023-03-11T14:04:01.323Z,5.20
2023-03-11T14:06:01.303Z,5.20
2023-03-11T14:08:01.316Z,5.20
2023-03-11T14:10:01.324Z,5.20
2023-03-11T14:12:01.302Z,4.90
2023-03-11T14:14:01.334Z,4.90
2023-03-11T14:16:01.272Z,5.20
2023-03-11T14:18:01.352Z,5.20
2023-03-11T14:20:01.302Z,5.20
2023-03-11T14:22:01.292Z,6.70
2023-03-11T14:24:01.296Z,6.70
2023-03-11T14:26:01.310Z,7.20
2023-03-11T14:28:01.414Z,7.40
2023-03-11T14:30:01.451Z,7.40
2023-03-11T14:32:01.420Z,7.40
2023-03-11T14:34:01.270Z,7.40
2023-03-11T14:36:01.409Z,7.40
2023-03-11T14:38:01.332Z,7.40
2023-03-11T14:40:01.324Z,7.40
2023-03-11T14:42:01.320Z,7.40
2023-03-11T14:44:01.361Z,6.80
2023-03-11T14:46:01.385Z,6.80
2023-03-11T14:48:01.381Z,6.10
2023-03-11T14:50:01.475Z,6.10
2023-03-11T14:52:01.291Z,6.10
2023-03-11T14:54:01.379Z,5.70
2023-03-11T14:56:01.410Z,5.40
2023-03-11T14:58:01.376Z,5.40
2023-03-11T15:00:01.418Z,5.40
2023-03-11T15:02:01.292Z,5.40
2023-03-11T15:04:01.488Z,5.20
2023-03-11T15:06:01.291Z,5.20
2023-03-11T15:08:01.326Z,5.20
2023-03-11T15:10:01.388Z,4.80
2023-03-11T15:12:02.132Z,4.80
2023-03-11T15:14:01.480Z,4.80
2023-03-11T15:16:31.650Z,4.70
2023-03-11T15:18:31.444Z,4.80
2023-03-11T15:20:31.549Z,4.80
2023-03-11T15:22:31.421Z,4.70
2023-03-11T15:24:31.336Z,4.70
2023-03-11T15:26:31.366Z,4.30
2023-03-11T15:28:31.448Z,4.00
2023-03-11T15:30:31.531Z,4.00
2023-03-11T15:32:31.446Z,4.00
2023-03-11T15:34:31.476Z,3.90
2023-03-11T15:36:31.556Z,3.90
2023-03-11T15:38:31.376Z,3.90
2023-03-11T15:40:44.350Z,3.90
2023-03-11T15:44:16.876Z,3.60
2023-03-11T15:46:16.943Z,3.60
2023-03-11T15:48:16.894Z,3.60
2023-03-11T15:50:24.253Z,3.60
2023-03-11T15:52:16.911Z,3.30
2023-03-11T15:54:16.899Z,3.30
2023-03-11T15:56:16.798Z,3.20
2023-03-11T15:58:16.846Z,3.20
2023-03-11T16:00:16.890Z,3.20
2023-03-11T16:02:16.865Z,3.20
2023-03-11T16:04:17.079Z,3.10
2023-03-11T16:06:16.902Z,3.00
2023-03-11T16:08:16.839Z,3.00
2023-03-11T16:10:16.951Z,3.00
2023-03-11T16:12:16.844Z,3.00
2023-03-11T16:14:46.896Z,3.10
2023-03-11T16:16:46.868Z,3.10
2023-03-11T16:18:46.926Z,3.00
2023-03-11T16:20:46.898Z,3.00
2023-03-11T16:22:46.948Z,2.90
2023-03-11T16:24:46.885Z,2.80
2023-03-11T16:26:46.852Z,2.80
2023-03-11T16:28:46.886Z,2.70
2023-03-11T16:30:46.868Z,2.70
2023-03-11T16:32:46.921Z,2.60
2023-03-11T16:34:47.598Z,2.60
2023-03-11T16:36:46.917Z,2.40
2023-03-11T16:38:46.866Z,2.40
2023-03-11T16:40:46.902Z,2.40
2023-03-11T16:42:46.816Z,2.30
2023-03-11T16:44:46.904Z,2.30
2023-03-11T16:46:46.980Z,2.20
2023-03-11T16:48:46.911Z,2.20
2023-03-11T16:50:47.014Z,2.20
2023-03-11T16:52:46.947Z,2.20
2023-03-11T16:54:46.842Z,1.90
2023-03-11T16:56:46.852Z,1.80
2023-03-11T16:58:46.878Z,1.80
2023-03-11T17:00:46.953Z,1.70
2023-03-11T17:02:46.926Z,1.70
2023-03-11T17:04:46.984Z,1.70
2023-03-11T17:06:46.940Z,1.50
2023-03-11T17:08:46.960Z,1.50
2023-03-11T17:10:46.927Z,1.50
2023-03-11T17:12:46.882Z,1.40
2023-03-11T17:14:46.896Z,1.40
2023-03-11T17:16:46.915Z,1.40
2023-03-11T17:18:46.939Z,1.40
2023-03-11T17:20:46.939Z,1.40
2023-03-11T17:22:46.966Z,1.30
2023-03-11T17:24:46.986Z,1.30
2023-03-11T17:26:46.922Z,1.30
2023-03-11T17:28:46.940Z,1.20
2023-03-11T17:30:46.932Z,1.20
2023-03-11T17:32:46.964Z,1.20
2023-03-11T17:34:46.926Z,1.20
2023-03-11T17:36:46.851Z,1.20
2023-03-11T17:38:46.980Z,1.10
2023-03-11T17:40:46.907Z,1.00
2023-03-11T17:42:46.865Z,1.00
2023-03-11T17:44:51.871Z,1.00
2023-03-11T17:46:46.987Z,0.90
2023-03-11T17:48:46.949Z,0.90
2023-03-11T17:50:46.956Z,0.90
2023-03-11T17:52:46.873Z,0.90
2023-03-11T17:54:46.879Z,0.90
2023-03-11T17:56:46.916Z,0.90
2023-03-11T17:58:46.846Z,0.80
2023-03-11T18:00:46.852Z,0.80
2023-03-11T18:02:46.851Z,0.80
2023-03-11T18:05:18.677Z,0.80
2023-03-11T18:07:16.885Z,0.80
2023-03-11T18:09:16.977Z,0.80
2023-03-11T18:11:18.888Z,0.80
2023-03-11T18:13:17.083Z,0.80
2023-03-11T18:15:16.915Z,0.80
2023-03-11T18:17:18.483Z,0.80
2023-03-11T18:19:16.937Z,0.80
2023-03-11T18:21:16.991Z,0.80
2023-03-11T18:23:16.906Z,0.80
2023-03-11T18:25:16.849Z,0.70
2023-03-11T18:27:16.924Z,0.60
2023-03-11T18:29:16.943Z,0.50
2023-03-11T18:31:17.006Z,0.40
2023-03-11T18:33:17.173Z,0.40
2023-03-11T18:35:16.968Z,0.40
2023-03-11T18:37:16.978Z,0.40
2023-03-11T18:39:16.904Z,0.40
2023-03-11T18:41:16.916Z,0.20
2023-03-11T18:43:16.875Z,0.20
2023-03-11T18:45:16.955Z,0.20
2023-03-11T18:47:16.944Z,0.10
2023-03-11T18:49:17.010Z,0.10
2023-03-11T18:51:16.975Z,0.10
2023-03-11T18:53:16.941Z,0.10
2023-03-11T18:55:16.889Z,-0.20
2023-03-11T18:57:16.992Z,-0.20
2023-03-11T18:59:16.988Z,-0.40
2023-03-11T19:01:17.007Z,-0.40
2023-03-11T19:03:16.983Z,-0.60
2023-03-11T19:05:17.249Z,-0.70
2023-03-11T19:07:17.048Z,-0.70
2023-03-11T19:09:17.000Z,-0.70
2023-03-11T19:11:16.956Z,-0.70
2023-03-11T19:13:16.949Z,-0.70
2023-03-11T19:15:16.986Z,-0.70
2023-03-11T19:17:16.987Z,-0.70
2023-03-11T19:19:16.986Z,-0.70
2023-03-11T19:21:17.000Z,-1.40
2023-03-11T19:23:17.011Z,-1.40
2023-03-11T19:25:16.963Z,-1.40
2023-03-11T19:27:16.964Z,-1.20
2023-03-11T19:29:17.024Z,-1.20
2023-03-11T19:31:17.098Z,-1.20
2023-03-11T19:33:16.992Z,-1.20
2023-03-11T19:35:17.031Z,-1.30
2023-03-11T19:37:17.042Z,-1.30
2023-03-11T19:39:17.028Z,-1.30
2023-03-11T19:41:16.977Z,-1.40
2023-03-11T19:43:16.903Z,-1.50
2023-03-11T19:45:17.063Z,-1.60
2023-03-11T19:47:17.020Z,-1.60
2023-03-11T19:49:17.005Z,-1.70
2023-03-11T19:51:17.059Z,-1.70
2023-03-11T19:53:47.064Z,-1.70
2023-03-11T19:55:47.012Z,-1.70
2023-03-11T19:57:46.968Z,-1.70
2023-03-11T19:59:47.067Z,-1.70
2023-03-11T20:01:47.063Z,-1.70
2023-03-11T20:03:47.057Z,-1.70
2023-03-11T20:05:47.034Z,-1.60
2023-03-11T20:07:47.029Z,-1.60
2023-03-11T20:09:46.919Z,-1.70
2023-03-11T20:11:46.967Z,-1.70
2023-03-11T20:13:47.016Z,-1.70
2023-03-11T20:15:47.199Z,-1.70
2023-03-11T20:17:47.003Z,-1.70
2023-03-11T20:19:47.075Z,-1.70
2023-03-11T20:21:47.049Z,-1.70
2023-03-11T20:23:47.066Z,-1.60
2023-03-11T20:25:47.005Z,-1.60
2023-03-11T20:27:47.143Z,-1.60
2023-03-11T20:29:47.009Z,-1.60
2023-03-11T20:31:47.136Z,-1.60
2023-03-11T20:33:47.166Z,-1.60
2023-03-11T20:35:47.147Z,-1.60
2023-03-11T20:37:46.952Z,-1.60
2023-03-11T20:39:47.017Z,-1.60
2023-03-11T20:41:47.023Z,-1.70
2023-03-11T20:43:47.050Z,-1.80
2023-03-11T20:45:47.042Z,-1.80
2023-03-11T20:47:47.159Z,-1.80
2023-03-11T20:49:47.120Z,-1.80
2023-03-11T20:51:47.076Z,-1.80
2023-03-11T20:53:47.072Z,-1.80
2023-03-11T20:55:46.967Z,-1.80
2023-03-11T20:57:47.034Z,-1.80
2023-03-11T20:59:47.118Z,-1.80
2023-03-11T21:01:47.060Z,-1.60
2023-03-11T21:03:47.140Z,-1.60
2023-03-11T21:05:47.098Z,-1.60
2023-03-11T21:07:47.050Z,-1.60
2023-03-11T21:09:46.982Z,-1.60
2023-03-11T21:11:47.006Z,-1.60
2023-03-11T21:13:47.107Z,-1.60
2023-03-11T21:15:47.022Z,-1.60
2023-03-11T21:17:47.082Z,-1.60
2023-03-11T21:19:47.196Z,-1.60
2023-03-11T21:21:47.112Z,-1.60
2023-03-11T21:23:47.120Z,-1.50
2023-03-11T21:25:47.242Z,-1.50
2023-03-11T21:27:47.008Z,-1.50
2023-03-11T21:29:47.049Z,-1.50
2023-03-11T21:31:47.178Z,-1.50
2023-03-11T21:33:47.212Z,-1.50
2023-03-11T21:35:47.121Z,-1.50
2023-03-11T21:37:47.266Z,-1.50
2023-03-11T21:39:47.118Z,-1.60
2023-03-11T21:42:17.123Z,-1.60
2023-03-11T21:44:17.101Z,-1.60
2023-03-11T21:46:17.083Z,-1.60
2023-03-11T21:48:17.109Z,-1.60
2023-03-11T21:50:17.137Z,-1.60
2023-03-11T21:52:16.977Z,-1.60
2023-03-11T21:54:17.006Z,-1.60
2023-03-11T21:56:17.040Z,-1.60
2023-03-11T21:58:17.017Z,-1.60
2023-03-11T22:00:17.077Z,-1.60
2023-03-11T22:02:17.225Z,-1.60
2023-03-11T22:04:17.254Z,-1.60
2023-03-11T22:06:17.112Z,-1.60
2023-03-11T22:08:17.026Z,-1.60
2023-03-11T22:10:17.077Z,-1.60
2023-03-11T22:12:17.196Z,-1.60
2023-03-11T22:14:17.092Z,-1.60
2023-03-11T22:16:17.216Z,-1.80
2023-03-11T22:18:17.180Z,-1.80
2023-03-11T22:20:17.102Z,-1.80
2023-03-11T22:22:17.178Z,-1.80
2023-03-11T22:24:17.068Z,-1.80
2023-03-11T22:26:17.116Z,-1.80
2023-03-11T22:28:17.111Z,-1.80
2023-03-11T22:30:17.347Z,-1.90
2023-03-11T22:32:17.215Z,-1.90
2023-03-11T22:34:17.115Z,-1.90
2023-03-11T22:36:17.100Z,-1.90
2023-03-11T22:38:17.095Z,-2.00
2023-03-11T22:40:17.115Z,-2.00
2023-03-11T22:42:17.191Z,-2.00
2023-03-11T22:44:17.129Z,-2.00
2023-03-11T22:46:17.224Z,-2.00
2023-03-11T22:48:17.221Z,-2.00
2023-03-11T22:50:17.169Z,-2.00
2023-03-11T22:54:17.186Z,-2.00
2023-03-11T22:56:26.378Z,-2.00
2023-03-11T22:58:26.495Z,-2.00
2023-03-11T23:00:26.421Z,-2.00
2023-03-11T23:02:26.462Z,-2.00
2023-03-11T23:04:26.460Z,-2.10
2023-03-11T23:06:26.473Z,-2.10
2023-03-11T23:08:26.486Z,-2.10
2023-03-11T23:10:26.471Z,-2.10
2023-03-11T23:12:26.423Z,-2.10
2023-03-11T23:14:37.910Z,-2.10
2023-03-11T23:16:26.492Z,-2.10
2023-03-11T23:18:26.532Z,-2.10
2023-03-11T23:20:26.444Z,-2.10
2023-03-11T23:22:26.464Z,-2.10
2023-03-11T23:24:26.452Z,-2.10
2023-03-11T23:26:26.492Z,-2.10
2023-03-11T23:28:26.428Z,-2.10
2023-03-11T23:30:26.447Z,-2.10
2023-03-11T23:32:26.526Z,-2.10
2023-03-11T23:34:26.476Z,-2.10
2023-03-11T23:36:26.468Z,-2.00
2023-03-11T23:38:26.521Z,-2.00
2023-03-11T23:40:26.530Z,-2.00
2023-03-11T23:42:26.606Z,-2.00
2023-03-11T23:44:26.414Z,-2.00
2023-03-11T23:46:26.544Z,-2.10
2023-03-11T23:48:26.487Z,-2.10
2023-03-11T23:50:26.539Z,-2.10
2023-03-11T23:52:26.501Z,-2.10
2023-03-11T23:54:26.370Z,-2.10
2023-03-11T23:56:26.520Z,-2.10
2023-03-11T23:58:26.465Z,-2.10
